Huntingtown, MD

11:37 AM EST on December 18, 2014 (GMT -0500)
N3IDX Live Weather | Change Station
CLOSE
Current Station
Personal Weather Station
Location: Huntingtown, MD
Elevation: 116 ft
Nearby Weather Stations

Elev 116 ft 38.64 °N, 76.62 °W | Updated 7 minutes ago

Partly Cloudy
Partly Cloudy
39.1 °F
Feels Like 34 °F
N
7.0
Wind Variable Wind from NE
Gusts 8.0 mph

Today
High -- | Low -- °F
--% Chance of Precip.
Yesterday
High -- | Low -- °F
Precip. -- in
7:18 AM 4:47 PM
Waning Crescent, 13% visible
Pressure 30.17 in
Visibility 10.0 miles
Clouds Scattered Clouds 3800 ft
Windchill 34 °F
Dew Point 26 °F
Humidity 60%
Rainfall 0.00 in
Snow Depth Not available.
UV 2 out of 12
Pollen .10 out of 12
Air Quality Not available.
Flu Activity Not available.
METAR KADW 181558Z 31016KT 10SM SCT038 03/M06 A3016 RMK AO2A SLP216 T00251065

More Conditions Fewer Conditions

Pressure 30.17 in
Visibility 10.0 miles
Clouds Scattered Clouds 3800 ft
Windchill 34 °F
Dew Point 26 °F
Humidity 60%
Rainfall 0.00 in
Snow Depth Not available.
UV 2 out of 12
Pollen .10 out of 12
Air Quality Not available.
Flu Activity Not available.
METAR KADW 181558Z 31016KT 10SM SCT038 03/M06 A3016 RMK AO2A SLP216 T00251065

More Conditions Fewer Conditions

10-Day Weather Forecast

Almanac

Astronomy

Dec. 18, 2014 Rise Set
Actual Time
Civil Twilight
Nautical Twilight
Astronomical Twilight
Moon
Length of Visible Light
Length of Day
Tomorrow will be .
, % of the Moon is Illuminated

Today's Extremes

State Highs State Lows

Community

WunderPhotos

Upload Photos

1,778,959 photos uploaded!

WunderBlogs® & News

Nearby

Air Quality

  Air Quality AQ Index Pollutant
Not available.

Snow Depth

Station Depth Elevation

Earthquake Activity

City Distance Mag. Time & Date
Minimum magnitude displayed is 2.5.

Coastal Water Temperatures

Place Temperature

Nearby Weather Stations